Time;durP1;ratioP1;P1;durP2;ratioP2;P2;SDS_P1;SDS_P2;PMS_P1;PMS_P2;Temp;Humidity;BMP_temperature;BMP_pressure;BME280_temperature;BME280_humidity;BME280_pressure;Samples;Min_cycle;Max_cycle;Signal;HPM_P1;HPM_P2
2022/07/14 00:01:09;;;;;;;11.10;2.00;;;;;;;14.37;70.10;101422.56;5084807;28;20501;-83
2022/07/14 00:03:35;;;;;;;10.35;2.30;;;;;;;14.36;70.14;101427.06;5083916;28;20043;-83
2022/07/14 00:06:01;;;;;;;11.35;2.47;;;;;;;14.39;70.18;101424.13;5083712;28;20107;-83
2022/07/14 00:08:26;;;;;;;12.45;1.92;;;;;;;14.45;69.98;101430.66;5070658;28;20036;-83
2022/07/14 00:10:52;;;;;;;13.38;2.20;;;;;;;14.47;69.88;101427.88;5088533;28;20455;-83
2022/07/14 00:13:18;;;;;;;12.77;2.28;;;;;;;14.49;69.79;101426.72;5089307;28;20043;-84
2022/07/14 00:15:44;;;;;;;10.35;1.83;;;;;;;14.48;69.77;101424.22;5091379;28;20040;-83
2022/07/14 00:18:10;;;;;;;12.57;2.08;;;;;;;14.45;69.64;101428.00;5085726;28;20032;-77
2022/07/14 00:20:36;;;;;;;15.20;2.67;;;;;;;14.41;69.88;101418.66;5071710;28;20044;-77
2022/07/14 00:23:02;;;;;;;10.80;2.05;;;;;;;14.34;69.80;101425.53;5089855;28;20036;-83
2022/07/14 00:25:27;;;;;;;15.60;2.80;;;;;;;14.30;69.83;101432.94;5088322;28;20032;-83
2022/07/14 00:27:54;;;;;;;10.13;1.98;;;;;;;14.24;70.21;101431.72;5067901;28;20039;-83
2022/07/14 00:30:21;;;;;;;9.45;1.80;;;;;;;14.16;70.33;101428.09;5082326;28;20511;-83
2022/07/14 00:32:47;;;;;;;15.18;2.53;;;;;;;14.09;70.67;101430.50;5089449;28;20052;-83
2022/07/14 00:35:14;;;;;;;10.02;1.95;;;;;;;14.06;70.74;101425.47;5093317;28;20048;-82
2022/07/14 00:37:40;;;;;;;12.70;2.72;;;;;;;14.05;70.84;101427.28;5110276;27;20066;-83
2022/07/14 00:40:07;;;;;;;9.32;2.25;;;;;;;14.01;70.80;101425.91;5088665;28;20028;-83
2022/07/14 00:42:40;;;;;;;12.10;1.58;;;;;;;13.98;70.99;101431.50;5073430;28;20088;-83
2022/07/14 00:45:09;;;;;;;9.70;2.00;;;;;;;13.88;71.23;101431.50;5073070;28;20039;-82
2022/07/14 00:47:35;;;;;;;18.02;2.40;;;;;;;13.83;71.42;101425.78;5090411;28;20488;-83
2022/07/14 00:50:03;;;;;;;9.98;2.00;;;;;;;13.84;71.38;101432.78;5072600;28;20376;-77
2022/07/14 00:52:29;;;;;;;11.10;2.25;;;;;;;13.69;71.56;101430.53;5067334;28;20514;-77
2022/07/14 00:54:56;;;;;;;13.65;2.20;;;;;;;13.61;72.13;101428.59;5074717;28;20115;-83
2022/07/14 00:57:22;;;;;;;12.45;3.03;;;;;;;13.55;72.18;101429.16;5085722;28;20129;-82
2022/07/14 00:59:49;;;;;;;9.93;2.35;;;;;;;13.45;72.65;101434.44;5082417;28;20581;-83
2022/07/14 01:02:17;;;;;;;11.25;2.20;;;;;;;13.36;72.94;101438.72;5089225;28;20662;-83
2022/07/14 01:04:45;;;;;;;7.32;1.52;;;;;;;13.33;72.95;101439.00;5084143;28;20539;-77
2022/07/14 01:07:15;;;;;;;9.13;1.88;;;;;;;13.35;73.19;101441.53;5087165;28;20119;-77
2022/07/14 01:09:42;;;;;;;12.55;2.33;;;;;;;13.37;73.11;101434.28;5086084;28;20103;-83
2022/07/14 01:12:09;;;;;;;10.30;1.77;;;;;;;13.36;73.37;101436.09;5085757;28;20129;-83
2022/07/14 01:14:36;;;;;;;11.63;2.25;;;;;;;13.41;73.06;101440.97;5091416;28;20035;-76
2022/07/14 01:17:03;;;;;;;15.13;2.20;;;;;;;13.40;73.24;101437.50;5089552;28;20043;-77
2022/07/14 01:19:29;;;;;;;17.35;2.50;;;;;;;13.32;73.47;101445.31;5106012;28;20113;-83
2022/07/14 01:21:56;;;;;;;13.75;2.60;;;;;;;13.28;73.80;101447.41;5086473;28;20055;-83
2022/07/14 01:24:23;;;;;;;16.33;2.63;;;;;;;13.22;74.32;101447.94;5087451;28;20031;-83
2022/07/14 01:26:49;;;;;;;13.40;2.50;;;;;;;13.15;74.34;101455.59;5068820;28;20487;-83
2022/07/14 01:29:17;;;;;;;11.75;2.25;;;;;;;13.13;74.75;101452.28;5100891;28;20511;-83
2022/07/14 01:31:44;;;;;;;8.73;2.40;;;;;;;13.09;75.41;101450.84;5087116;28;20110;-83
2022/07/14 01:34:12;;;;;;;16.38;2.35;;;;;;;13.12;75.32;101453.22;5086660;28;20024;-83
2022/07/14 01:36:38;;;;;;;17.48;2.50;;;;;;;13.15;75.60;101450.28;5080950;28;20350;-83
2022/07/14 01:39:05;;;;;;;12.98;2.08;;;;;;;13.21;75.40;101448.94;5086196;28;20092;-82
2022/07/14 01:41:32;;;;;;;13.13;2.05;;;;;;;13.22;75.59;101447.94;5066531;28;20388;-82
2022/07/14 01:43:59;;;;;;;11.05;2.92;;;;;;;13.20;75.73;101459.69;5052627;28;20020;-77
2022/07/14 01:46:25;;;;;;;15.57;2.97;;;;;;;13.17;75.93;101455.47;5086997;28;20039;-76
2022/07/14 01:48:52;;;;;;;13.65;2.28;;;;;;;13.15;76.08;101455.59;5085068;28;20032;-82
2022/07/14 01:51:18;;;;;;;15.07;2.90;;;;;;;13.18;76.14;101459.81;5077329;28;20100;-83
2022/07/14 01:53:44;;;;;;;13.63;2.22;;;;;;;13.17;75.92;101449.34;5080956;28;20032;-83
2022/07/14 01:56:11;;;;;;;11.65;2.17;;;;;;;13.12;76.30;101452.41;5086726;28;20125;-83
2022/07/14 01:58:38;;;;;;;14.85;2.67;;;;;;;13.05;76.44;101454.75;5081559;28;20053;-81
2022/07/14 02:03:55;;;;;;;16.75;2.55;;;;;;;12.99;76.68;101450.00;5104479;27;20043;-83
2022/07/14 02:06:20;;;;;;;13.40;2.38;;;;;;;13.02;77.13;101447.91;5085748;28;20024;-83
2022/07/14 02:08:46;;;;;;;8.05;1.98;;;;;;;13.04;76.96;101450.44;5080987;28;20086;-83
2022/07/14 02:13:58;;;;;;;10.75;2.42;;;;;;;13.11;76.94;101448.91;5101814;28;20078;-83
2022/07/14 02:16:24;;;;;;;9.05;2.10;;;;;;;13.16;76.72;101448.50;5088494;28;20457;-83
2022/07/14 02:18:51;;;;;;;11.73;3.20;;;;;;;13.19;76.58;101450.03;5089151;28;20604;-83
2022/07/14 02:21:17;;;;;;;15.18;2.60;;;;;;;13.20;76.55;101449.06;5086652;28;20039;-83
2022/07/14 02:23:44;;;;;;;14.60;2.25;;;;;;;13.20;76.55;101449.06;5068828;28;20423;-77
2022/07/14 02:26:12;;;;;;;11.55;2.10;;;;;;;13.23;76.25;101448.78;5091453;28;20033;-77
2022/07/14 02:28:39;;;;;;;12.40;2.40;;;;;;;13.19;76.45;101442.06;5082385;28;20093;-83
2022/07/14 02:31:06;;;;;;;10.38;2.15;;;;;;;13.17;76.53;101441.38;5087823;28;20484;-83
2022/07/14 02:33:32;;;;;;;12.27;3.03;;;;;;;13.14;76.39;101437.16;5083995;28;20059;-83
2022/07/14 02:35:58;;;;;;;13.30;2.97;;;;;;;13.10;76.62;101433.97;5072871;28;20028;-83
2022/07/14 02:38:24;;;;;;;12.32;2.70;;;;;;;13.09;77.15;101447.38;5087474;28;20157;-83
2022/07/14 02:40:51;;;;;;;10.90;1.67;;;;;;;13.04;77.00;101447.78;5080194;28;20032;-83
2022/07/14 02:43:17;;;;;;;11.48;2.05;;;;;;;13.05;76.94;101451.25;5086516;28;20068;-82
2022/07/14 02:45:43;;;;;;;13.75;2.55;;;;;;;13.03;77.15;101452.25;5084098;28;20038;-83
2022/07/14 02:48:09;;;;;;;10.32;2.05;;;;;;;13.03;77.09;101452.25;5069261;28;20035;-83
2022/07/14 02:50:36;;;;;;;9.85;1.92;;;;;;;13.02;76.97;101452.38;5087155;28;20035;-83
2022/07/14 02:53:04;;;;;;;9.73;2.42;;;;;;;13.00;77.15;101446.34;5089090;28;20134;-83
2022/07/14 02:55:36;;;;;;;13.18;2.35;;;;;;;12.98;77.25;101448.31;5085694;28;20036;-82
2022/07/14 02:58:04;;;;;;;15.27;2.78;;;;;;;13.00;77.48;101451.66;5101639;28;20042;-83
2022/07/14 03:00:31;;;;;;;12.05;2.30;;;;;;;13.02;77.17;101450.56;5058601;28;20032;-83
2022/07/14 03:03:00;;;;;;;14.63;2.97;;;;;;;13.01;76.98;101464.81;5084309;28;20028;-82
2022/07/14 03:05:27;;;;;;;11.10;2.55;;;;;;;13.00;76.97;101471.09;5079653;28;20024;-83
2022/07/14 03:07:54;;;;;;;8.27;2.03;;;;;;;12.96;77.31;101467.03;5048581;28;20077;-83
2022/07/14 03:10:20;;;;;;;10.48;2.25;;;;;;;12.96;77.38;101466.19;5067684;28;20511;-82
2022/07/14 03:12:46;;;;;;;16.65;2.65;;;;;;;12.96;77.78;101469.69;5083488;28;20089;-77
2022/07/14 03:15:12;;;;;;;12.57;2.85;;;;;;;12.96;77.64;101469.69;5084353;28;20492;-76
2022/07/14 03:17:38;;;;;;;18.27;3.83;;;;;;;12.97;77.93;101474.00;5068790;28;20035;-76
2022/07/14 03:20:08;;;;;;;14.20;1.85;;;;;;;12.97;77.63;101471.38;5082521;28;20070;-82
2022/07/14 03:22:35;;;;;;;16.98;2.90;;;;;;;13.03;77.95;101462.84;5089368;28;20055;-83
2022/07/14 03:25:09;;;;;;;17.10;2.88;;;;;;;13.13;77.70;101464.69;5088659;28;20469;-82
2022/07/14 03:27:36;;;;;;;9.80;2.38;;;;;;;13.17;77.65;101463.44;5084534;28;20089;-82
2022/07/14 03:30:07;;;;;;;10.30;2.50;;;;;;;13.20;77.33;101470.31;5082450;28;20028;-82
2022/07/14 03:32:34;;;;;;;12.50;2.10;;;;;;;13.22;77.36;101466.53;5052667;28;20135;-83
2022/07/14 03:35:06;;;;;;;12.63;2.40;;;;;;;13.27;77.57;101464.31;5067107;28;20039;-82
2022/07/14 03:37:32;;;;;;;17.08;2.50;;;;;;;13.29;77.21;101456.22;5073295;28;20388;-82
2022/07/14 03:40:06;;;;;;;8.90;1.70;;;;;;;13.36;77.19;101464.47;5068207;28;20469;-82
2022/07/14 03:42:31;;;;;;;13.93;2.83;;;;;;;13.40;77.05;101455.25;5084498;28;20043;-82
2022/07/14 03:44:59;;;;;;;14.95;3.28;;;;;;;13.44;77.02;101458.47;5069082;28;20069;-82
2022/07/14 03:47:25;;;;;;;17.50;2.75;;;;;;;13.47;76.95;101456.34;5089812;28;20123;-83
2022/07/14 03:49:52;;;;;;;10.82;2.55;;;;;;;13.49;76.88;101454.41;5085356;28;20036;-82
2022/07/14 03:52:19;;;;;;;10.50;2.47;;;;;;;13.52;76.71;101456.81;5047918;28;20393;-83
2022/07/14 03:54:46;;;;;;;12.50;2.53;;;;;;;13.56;76.31;101454.72;5083394;28;20032;-76
2022/07/14 03:57:14;;;;;;;10.73;2.20;;;;;;;13.52;76.57;101448.03;5084444;28;20087;-76
2022/07/14 03:59:41;;;;;;;17.40;2.08;;;;;;;13.46;76.74;101449.38;5087760;28;20043;-82
2022/07/14 04:02:11;;;;;;;15.68;2.15;;;;;;;13.46;77.15;101453.84;5068675;28;20060;-83
2022/07/14 04:04:37;;;;;;;14.00;2.20;;;;;;;13.46;77.00;101454.69;5084949;28;20516;-82
2022/07/14 04:07:04;;;;;;;14.10;2.35;;;;;;;13.47;77.17;101458.19;5078591;28;20047;-82
2022/07/14 04:09:31;;;;;;;11.35;2.00;;;;;;;13.44;77.46;101453.97;5085698;28;20541;-82
2022/07/14 04:11:58;;;;;;;10.20;1.92;;;;;;;13.45;77.17;101460.13;5087868;28;20048;-82
2022/07/14 04:14:24;;;;;;;12.65;2.20;;;;;;;13.43;76.99;101462.94;5087970;28;20029;-82
2022/07/14 04:16:51;;;;;;;11.82;2.55;;;;;;;13.44;77.47;101447.84;5082177;28;20038;-83
2022/07/14 04:19:19;;;;;;;11.63;2.70;;;;;;;13.43;77.36;101465.59;5090913;28;20476;-83
2022/07/14 04:21:45;;;;;;;11.93;2.42;;;;;;;13.43;77.55;101454.13;5093536;28;20444;-82
2022/07/14 04:24:12;;;;;;;15.90;2.00;;;;;;;13.39;77.47;101453.56;5090366;28;20553;-76
2022/07/14 04:26:40;;;;;;;12.20;2.30;;;;;;;13.36;77.80;101462.63;5085655;28;20040;-77
2022/07/14 04:29:07;;;;;;;12.68;2.28;;;;;;;13.34;77.88;101461.09;5089313;28;20028;-82
2022/07/14 04:31:34;;;;;;;12.95;2.08;;;;;;;13.33;77.94;101460.25;5056550;28;20563;-82
2022/07/14 04:34:01;;;;;;;16.88;2.58;;;;;;;13.29;78.23;101461.53;5087391;28;20036;-82
2022/07/14 04:36:28;;;;;;;14.02;2.67;;;;;;;13.27;78.26;101461.66;5072775;28;20388;-83
2022/07/14 04:38:56;;;;;;;12.68;2.13;;;;;;;13.24;78.44;101458.44;5072177;28;20059;-82
2022/07/14 04:41:24;;;;;;;12.55;2.50;;;;;;;13.22;78.26;101461.22;5071365;28;20067;-83
2022/07/14 04:43:50;;;;;;;18.05;2.85;;;;;;;13.21;78.52;101462.22;5079281;28;20031;-82
2022/07/14 04:46:17;;;;;;;13.63;2.30;;;;;;;13.20;78.59;101471.16;5090881;28;20043;-83
2022/07/14 04:54:26;;;;;;;14.50;2.83;;;;;;;13.19;78.98;101461.50;5086500;28;20059;-76
2022/07/14 04:57:10;;;;;;;10.25;1.90;;;;;;;13.17;78.94;101468.75;5104112;28;20094;-76
2022/07/14 04:59:45;;;;;;;15.95;2.80;;;;;;;13.17;79.14;101457.31;5071800;28;20048;-83
2022/07/14 05:02:13;;;;;;;11.15;2.15;;;;;;;13.17;79.07;101463.44;5073158;28;20383;-82
2022/07/14 05:04:39;;;;;;;13.77;2.53;;;;;;;13.15;79.44;101468.88;5082906;28;20031;-82
2022/07/14 05:07:06;;;;;;;11.77;2.63;;;;;;;13.15;79.55;101476.03;5085909;28;20086;-82
2022/07/14 05:09:33;;;;;;;11.02;2.50;;;;;;;13.15;79.38;101470.72;5073500;28;20507;-82
2022/07/14 05:12:02;;;;;;;14.40;2.13;;;;;;;13.12;79.93;101474.47;5087496;28;20400;-83
2022/07/14 05:14:29;;;;;;;14.63;2.72;;;;;;;13.12;79.79;101476.28;5087506;28;20043;-82
2022/07/14 05:16:56;;;;;;;18.88;2.70;;;;;;;13.10;80.14;101478.25;5089764;28;20111;-82
2022/07/14 05:19:22;;;;;;;16.30;2.55;;;;;;;13.11;80.17;101477.25;5084089;28;20024;-77
2022/07/14 05:21:48;;;;;;;10.95;2.22;;;;;;;13.09;80.61;101481.88;5079178;28;20043;-76
2022/07/14 05:24:14;;;;;;;15.25;2.58;;;;;;;13.11;80.64;101482.56;5086808;28;20036;-82
2022/07/14 05:26:40;;;;;;;9.63;2.25;;;;;;;13.08;80.79;101473.06;5071640;28;20508;-82
2022/07/14 05:29:07;;;;;;;10.90;2.42;;;;;;;13.13;80.53;101473.50;5081459;28;20020;-82
2022/07/14 05:31:33;;;;;;;12.98;2.45;;;;;;;13.17;80.79;101475.88;5083434;28;20037;-82
2022/07/14 05:33:59;;;;;;;8.95;2.00;;;;;;;13.21;80.70;101478.13;5107535;28;20028;-83
2022/07/14 05:36:26;;;;;;;13.02;2.50;;;;;;;13.23;80.69;101488.63;5073280;28;20115;-82
2022/07/14 05:38:53;;;;;;;10.15;2.22;;;;;;;13.27;80.72;101485.56;5090397;28;20063;-76
2022/07/14 05:41:19;;;;;;;12.52;2.17;;;;;;;13.31;80.68;101485.28;5089191;28;20040;-76
2022/07/14 05:43:47;;;;;;;13.73;2.60;;;;;;;13.30;80.79;101487.09;5070883;28;20048;-82
2022/07/14 05:46:13;;;;;;;14.27;2.30;;;;;;;13.34;80.77;101492.97;5073700;28;20032;-82
2022/07/14 05:48:40;;;;;;;10.75;2.08;;;;;;;13.36;80.80;101489.19;5087450;28;20130;-83
2022/07/14 05:51:09;;;;;;;12.55;2.65;;;;;;;13.38;80.66;101499.66;5090884;28;20072;-82
2022/07/14 05:53:36;;;;;;;14.23;3.33;;;;;;;13.45;80.56;101490.19;5072821;28;20500;-83
2022/07/14 05:56:05;;;;;;;9.65;2.40;;;;;;;13.52;80.77;101493.19;5084971;28;20020;-82
2022/07/14 05:58:32;;;;;;;18.80;2.53;;;;;;;13.59;80.46;101496.94;5087129;28;20046;-82
2022/07/14 06:00:59;;;;;;;22.90;2.80;;;;;;;13.64;80.25;101502.69;5087242;28;20056;-82
2022/07/14 06:03:25;;;;;;;11.65;2.28;;;;;;;13.70;80.39;101497.78;5084308;28;20118;-82
2022/07/14 06:05:51;;;;;;;11.05;2.28;;;;;;;13.75;80.26;101498.22;5090572;28;20062;-82
2022/07/14 06:08:17;;;;;;;7.97;1.65;;;;;;;13.80;79.99;101490.69;5091002;28;20118;-82
2022/07/14 06:10:43;;;;;;;14.00;2.47;;;;;;;13.81;80.08;101497.66;5086422;28;20501;-82
2022/07/14 06:13:10;;;;;;;17.65;3.38;;;;;;;13.85;79.90;101487.59;5071034;28;20024;-82
2022/07/14 06:15:36;;;;;;;10.77;2.42;;;;;;;13.89;79.72;101489.84;5088278;28;20032;-82
2022/07/14 06:18:02;;;;;;;14.02;2.55;;;;;;;13.91;80.01;101492.34;5091127;28;20035;-83
2022/07/14 06:20:28;;;;;;;13.48;2.17;;;;;;;13.95;80.07;101488.41;5075377;28;20028;-82
2022/07/14 06:22:54;;;;;;;8.57;1.90;;;;;;;14.00;80.13;101490.66;5072658;28;20028;-76
2022/07/14 06:25:20;;;;;;;12.00;2.25;;;;;;;14.00;80.18;101494.16;5074211;28;20540;-76
2022/07/14 06:27:47;;;;;;;15.27;3.28;;;;;;;14.01;80.52;101501.13;5072692;28;20535;-83
2022/07/14 06:30:13;;;;;;;11.32;2.33;;;;;;;13.98;81.04;101508.59;5077381;28;20039;-82
2022/07/14 06:32:41;;;;;;;17.20;2.42;;;;;;;13.91;80.95;101510.94;5091498;28;20075;-83
2022/07/14 06:35:10;;;;;;;14.45;2.75;;;;;;;13.96;81.09;101508.72;5086851;28;20043;-82
2022/07/14 06:37:36;;;;;;;13.88;2.80;;;;;;;14.01;81.09;101509.13;5063721;28;20483;-83
2022/07/14 06:40:04;;;;;;;20.70;2.20;;;;;;;14.05;80.89;101515.00;5074815;28;20112;-82
2022/07/14 06:42:30;;;;;;;11.43;2.70;;;;;;;13.91;80.84;101505.63;5105756;28;20081;-82
2022/07/14 06:45:11;;;;;;;20.45;2.75;;;;;;;13.83;80.92;101509.00;5087080;28;20020;-82
2022/07/14 06:47:37;;;;;;;20.42;3.33;;;;;;;13.78;81.05;101508.56;5071594;28;20396;-83
2022/07/14 06:50:04;;;;;;;15.70;2.42;;;;;;;13.84;81.07;101502.69;5080733;28;20043;-83
2022/07/14 06:52:31;;;;;;;10.80;2.10;;;;;;;13.92;81.28;101511.81;5073535;28;20059;-82
2022/07/14 06:55:01;;;;;;;15.82;2.42;;;;;;;13.96;80.56;101518.50;5081915;28;20495;-83
2022/07/14 06:57:27;;;;;;;12.80;2.40;;;;;;;13.95;80.62;101512.34;5088254;28;20039;-82
2022/07/14 06:59:53;;;;;;;16.98;2.65;;;;;;;14.01;80.44;101508.31;5086230;28;20058;-76
2022/07/14 07:02:19;;;;;;;14.10;2.88;;;;;;;14.04;80.12;101523.13;5086632;28;20081;-76
2022/07/14 07:06:43;;;;;;;17.63;3.22;;;;;;;14.09;79.95;101521.72;5078961;28;20027;-82
2022/07/14 07:07:32;;;;;;;10.30;1.88;;;;;;;14.15;79.62;101525.63;5075902;28;20050;-82
2022/07/14 07:09:58;;;;;;;21.38;2.58;;;;;;;14.14;78.97;101524.78;5086754;28;20027;-82
2022/07/14 07:12:24;;;;;;;11.32;2.00;;;;;;;14.16;78.89;101527.31;5064831;28;20086;-82
2022/07/14 07:14:50;;;;;;;14.40;2.20;;;;;;;14.28;78.79;101525.34;5087758;28;20051;-77
2022/07/14 07:17:15;;;;;;;11.45;1.52;;;;;;;14.34;78.25;101526.59;5105472;28;20112;-76
2022/07/14 07:19:41;;;;;;;10.48;2.08;;;;;;;14.47;77.84;101528.94;5053076;28;20118;-82
2022/07/14 07:22:07;;;;;;;11.15;1.58;;;;;;;14.69;77.76;101526.91;5080801;28;20028;-82
2022/07/14 07:24:33;;;;;;;12.43;1.63;;;;;;;14.92;76.72;101524.78;5089420;28;20047;-83
2022/07/14 07:26:58;;;;;;;10.23;1.45;;;;;;;14.96;75.73;101526.16;5087904;28;20073;-84
2022/07/14 07:29:24;;;;;;;12.98;2.10;;;;;;;15.10;75.58;101535.47;5081650;28;20036;-83
2022/07/14 07:31:50;;;;;;;10.68;1.70;;;;;;;15.22;75.10;101529.97;5081891;28;20036;-82
2022/07/14 07:34:16;;;;;;;14.57;2.00;;;;;;;15.40;74.55;101530.00;5087589;28;20059;-83
2022/07/14 07:36:42;;;;;;;8.85;1.30;;;;;;;15.50;73.50;101533.44;5078737;28;20042;-83
2022/07/14 07:39:07;;;;;;;8.25;1.63;;;;;;;15.45;71.99;101526.91;5079426;28;20119;-77
2022/07/14 07:41:34;;;;;;;7.65;1.35;;;;;;;15.35;70.67;101530.44;5088004;28;20070;-77
2022/07/14 07:43:59;;;;;;;4.60;1.00;;;;;;;15.25;70.50;101535.84;5088435;28;20069;-83
2022/07/14 07:46:26;;;;;;;7.18;1.35;;;;;;;15.24;69.83;101531.47;5088126;28;20447;-83
2022/07/14 07:48:52;;;;;;;4.15;1.00;;;;;;;15.05;69.00;101532.41;5071610;28;20028;-83
2022/07/14 07:51:18;;;;;;;6.60;1.02;;;;;;;14.95;68.81;101526.31;5077769;28;20037;-83
2022/07/14 07:53:44;;;;;;;5.57;1.08;;;;;;;14.85;68.44;101540.50;5088654;28;20035;-83
2022/07/14 07:56:10;;;;;;;6.35;1.13;;;;;;;14.80;68.67;101536.56;5087011;28;20028;-82
2022/07/14 07:58:36;;;;;;;9.73;1.40;;;;;;;14.78;68.68;101530.56;5084711;28;20036;-83
2022/07/14 08:01:02;;;;;;;4.82;1.23;;;;;;;14.82;68.72;101540.78;5084082;28;20031;-83
2022/07/14 08:03:29;;;;;;;6.68;1.25;;;;;;;14.78;68.82;101538.53;5068507;28;20481;-83
2022/07/14 08:05:55;;;;;;;5.70;1.58;;;;;;;14.80;68.76;101542.75;5088701;28;20028;-83
2022/07/14 08:08:21;;;;;;;9.90;1.42;;;;;;;14.85;68.58;101537.00;5084161;28;20088;-83
2022/07/14 08:10:47;;;;;;;6.40;1.45;;;;;;;14.86;68.27;101533.34;5027218;28;20039;-83
2022/07/14 08:13:14;;;;;;;11.13;1.30;;;;;;;14.83;68.40;101539.78;5070517;28;20047;-82
2022/07/14 08:15:40;;;;;;;11.00;1.73;;;;;;;14.79;68.22;101537.53;5051604;28;20092;-82
2022/07/14 08:18:06;;;;;;;4.88;1.02;;;;;;;14.82;68.12;101538.13;5087553;28;20056;-82
2022/07/14 08:20:34;;;;;;;6.55;1.42;;;;;;;14.88;68.20;101536.69;5097316;28;20040;-82
2022/07/14 08:23:00;;;;;;;7.53;1.02;;;;;;;14.85;67.71;101545.81;5086329;28;20384;-82
2022/07/14 08:25:26;;;;;;;5.15;1.02;;;;;;;14.85;67.60;101537.00;5083984;28;20020;-82
2022/07/14 08:27:52;;;;;;;9.25;1.10;;;;;;;14.86;67.64;101541.31;5087722;28;20028;-83
2022/07/14 08:30:19;;;;;;;7.30;1.40;;;;;;;14.90;67.45;101536.53;5089703;28;20038;-82
2022/07/14 08:32:49;;;;;;;4.75;0.88;;;;;;;14.95;67.37;101540.47;5085254;28;20076;-83
2022/07/14 08:35:16;;;;;;;5.97;1.05;;;;;;;14.97;67.51;101542.97;5083104;28;20036;-82
2022/07/14 08:37:43;;;;;;;7.60;1.33;;;;;;;14.95;67.67;101545.78;5078625;28;20047;-83
2022/07/14 08:40:18;;;;;;;6.07;1.50;;;;;;;14.99;67.83;101536.50;5086682;28;20480;-81
2022/07/14 08:42:51;;;;;;;9.68;1.88;;;;;;;15.12;67.97;101533.53;5083545;28;20033;-82
2022/07/14 08:45:20;;;;;;;5.45;1.42;;;;;;;15.22;67.85;101544.13;5085123;28;20118;-82
2022/07/14 08:47:46;;;;;;;7.35;1.02;;;;;;;15.24;66.89;101550.13;5064473;28;21299;-82
2022/07/14 08:50:16;;;;;;;12.02;2.00;;;;;;;15.22;66.42;101541.47;5080953;28;20038;-82
2022/07/14 08:52:44;;;;;;;8.90;1.10;;;;;;;15.31;66.26;101546.88;5087405;28;20067;-82
2022/07/14 08:55:12;;;;;;;9.02;1.20;;;;;;;15.34;65.70;101536.75;5090965;28;20047;-82
2022/07/14 08:57:40;;;;;;;4.25;0.63;;;;;;;15.39;65.61;101538.97;5088952;28;20047;-82
2022/07/14 09:00:19;;;;;;;5.25;1.05;;;;;;;15.53;65.38;101540.28;5081986;28;20028;-82
2022/07/14 09:02:52;;;;;;;4.85;0.93;;;;;;;15.66;64.54;101533.75;5087713;28;20044;-82
2022/07/14 09:05:18;;;;;;;3.92;0.98;;;;;;;15.59;64.50;101530.88;5070468;28;20080;-76
2022/07/14 09:07:44;;;;;;;3.70;1.25;;;;;;;15.63;64.65;101526.91;5071874;28;20036;-76
2022/07/14 09:10:17;;;;;;;5.90;0.75;;;;;;;15.77;64.37;101525.53;5092232;28;20032;-81
2022/07/14 09:12:44;;;;;;;9.07;1.00;;;;;;;15.87;64.56;101536.97;5092595;28;20480;-82
2022/07/14 09:18:04;;;;;;;6.72;1.20;;;;;;;16.08;64.06;101519.84;5084988;28;20028;-82
2022/07/14 09:20:31;;;;;;;8.23;1.00;;;;;;;16.18;64.12;101529.59;5062657;28;20150;-82
2022/07/14 09:23:00;;;;;;;6.93;1.10;;;;;;;16.11;63.90;101529.38;5104882;28;20021;-82
2022/07/14 09:25:29;;;;;;;8.77;0.95;;;;;;;16.16;64.49;101531.56;5083656;28;20431;-82
2022/07/14 09:27:55;;;;;;;12.60;1.13;;;;;;;16.24;64.18;101526.31;5088057;28;20033;-82
2022/07/14 09:30:23;;;;;;;7.57;1.40;;;;;;;16.34;64.15;101528.88;5087189;28;20035;-82
2022/07/14 09:32:55;;;;;;;8.35;1.17;;;;;;;16.38;63.96;101530.22;5070921;28;20124;-82
2022/07/14 09:35:24;;;;;;;4.35;0.90;;;;;;;16.37;63.77;101532.06;5089391;28;20169;-82
2022/07/14 09:37:51;;;;;;;4.90;0.90;;;;;;;16.33;63.60;101528.03;5087526;28;20025;-82
2022/07/14 09:40:28;;;;;;;4.25;0.60;;;;;;;16.25;64.22;101533.31;5066895;28;20119;-82
2022/07/14 09:43:05;;;;;;;6.70;1.40;;;;;;;16.28;63.58;101530.31;5088564;28;20502;-77
2022/07/14 09:45:38;;;;;;;4.80;1.27;;;;;;;16.33;63.79;101524.53;5089233;28;20040;-76
2022/07/14 09:48:09;;;;;;;9.27;0.98;;;;;;;16.38;63.64;101530.22;5072715;28;20107;-82
2022/07/14 09:51:01;;;;;;;7.10;1.25;;;;;;;16.46;63.60;101532.13;5079363;28;20384;-82
2022/07/14 09:53:32;;;;;;;6.07;1.10;;;;;;;16.50;63.38;101528.13;5066186;28;20052;-76
2022/07/14 09:55:58;;;;;;;8.65;1.08;;;;;;;16.65;63.14;101535.56;5090563;28;20054;-76
2022/07/14 09:58:29;;;;;;;9.85;0.95;;;;;;;16.78;62.87;101537.81;5080208;28;20028;-76
2022/07/14 10:01:10;;;;;;;6.65;1.17;;;;;;;16.84;62.65;101545.19;5071212;28;20039;-76
2022/07/14 10:03:40;;;;;;;7.05;1.77;;;;;;;16.82;63.03;101547.16;5086675;28;20073;-82
2022/07/14 10:06:06;;;;;;;10.35;1.83;;;;;;;16.89;63.29;101544.69;5091066;28;20020;-82
2022/07/14 10:08:39;;;;;;;5.57;1.00;;;;;;;16.94;63.01;101550.41;5091070;28;20036;-82
2022/07/14 10:11:06;;;;;;;4.68;0.90;;;;;;;16.98;62.86;101554.44;5089212;28;20028;-82
2022/07/14 10:13:32;;;;;;;8.02;1.35;;;;;;;17.03;62.65;101554.78;5082344;28;20404;-82
2022/07/14 10:15:59;;;;;;;12.30;1.13;;;;;;;17.08;62.57;101552.53;5088862;28;20044;-82
2022/07/14 10:18:27;;;;;;;5.57;1.00;;;;;;;17.10;62.89;101563.84;5082025;28;20089;-82
2022/07/14 10:20:56;;;;;;;12.10;1.00;;;;;;;17.16;62.63;101556.22;5068660;28;20118;-82
2022/07/14 10:23:24;;;;;;;7.78;1.23;;;;;;;17.11;62.65;101556.69;5088221;28;20032;-82
2022/07/14 10:25:58;;;;;;;10.98;1.27;;;;;;;17.24;62.25;101556.25;5081345;28;20049;-82
2022/07/14 10:28:25;;;;;;;8.52;1.52;;;;;;;17.20;62.06;101557.59;5067718;28;20068;-82
2022/07/14 10:31:18;;;;;;;12.90;1.42;;;;;;;17.19;61.45;101564.75;5082897;28;20038;-83
2022/07/14 10:34:24;;;;;;;7.78;0.90;;;;;;;17.25;61.38;101567.78;5087062;28;20036;-82
2022/07/14 10:37:27;;;;;;;9.65;1.75;;;;;;;17.25;61.07;101565.09;5072421;28;20036;-83
2022/07/14 10:40:28;;;;;;;5.20;0.50;;;;;;;17.26;60.29;101564.09;5082193;28;20027;-82
2022/07/14 10:43:00;;;;;;;4.65;0.75;;;;;;;17.27;61.00;101569.28;5082655;28;20032;-80
2022/07/14 10:45:26;;;;;;;11.55;1.27;;;;;;;17.34;61.10;101566.81;5086695;28;20222;-82
2022/07/14 10:47:53;;;;;;;9.25;1.00;;;;;;;17.40;60.69;101571.50;5072114;28;20040;-82
2022/07/14 10:50:28;;;;;;;6.97;1.02;;;;;;;17.42;60.39;101571.34;5088483;28;20028;-83
2022/07/14 10:52:54;;;;;;;9.27;1.33;;;;;;;17.45;60.44;101565.66;5055505;28;20031;-82
2022/07/14 10:55:23;;;;;;;5.82;0.93;;;;;;;17.64;60.08;101571.72;5082835;28;20043;-82
2022/07/14 10:57:59;;;;;;;3.50;0.50;;;;;;;17.89;58.27;101566.41;5084863;28;20484;-81
2022/07/14 11:00:40;;;;;;;7.22;0.90;;;;;;;17.82;57.94;101567.06;5076369;28;20055;-80
2022/07/14 11:03:25;;;;;;;8.93;1.02;;;;;;;17.80;57.82;101566.44;5087782;28;20028;-82
2022/07/14 11:06:00;;;;;;;4.10;0.60;;;;;;;17.89;57.42;101559.25;5089391;28;20036;-81
2022/07/14 11:08:27;;;;;;;;;;;;;;;17.65;57.29;101566.22;5097591;28;20089;-76
2022/07/14 11:10:54;;;;;;;3.50;0.55;;;;;;;17.77;58.88;101572.09;5077303;28;19916;-76
2022/07/14 11:13:20;;;;;;;2.97;0.80;;;;;;;17.86;58.61;101570.25;5083634;28;20485;-83
2022/07/14 11:15:55;;;;;;;4.47;1.00;;;;;;;17.99;58.28;101561.75;5086573;28;20038;-82
2022/07/14 11:18:21;;;;;;;4.88;0.70;;;;;;;18.00;57.95;101563.41;5084289;28;20035;-82
2022/07/14 11:21:05;;;;;;;10.73;1.17;;;;;;;17.87;58.26;101563.91;5088664;28;20392;-82
2022/07/14 11:23:52;;;;;;;10.32;1.35;;;;;;;17.90;58.08;101552.88;5069063;28;20032;-82
2022/07/14 11:26:40;;;;;;;5.43;0.80;;;;;;;18.12;57.31;101558.63;5103552;28;20030;-82
2022/07/14 11:29:08;;;;;;;4.30;0.70;;;;;;;18.26;57.40;101561.63;5064209;28;20024;-82
2022/07/14 11:31:53;;;;;;;5.10;0.55;;;;;;;18.32;56.74;101561.78;5087772;28;20060;-81
2022/07/14 11:37:10;;;;;;;2.90;0.60;;;;;;;18.30;57.27;101562.97;5084212;28;20078;-81
2022/07/14 11:39:38;;;;;;;3.13;0.82;;;;;;;18.32;57.27;101558.25;5090917;28;20032;-83
2022/07/14 11:42:07;;;;;;;4.95;0.80;;;;;;;18.42;56.67;101552.75;5083993;28;20041;-82